Flight Track Log - Related Links

Times and Time Zones

All times are in EDT time to prevent confusion due to time zone crossing. See the AAY855 flight status page for this flight to view local times or setup timezone preferences in your user account.

Time Position Orientation Groundspeed Altitude Reporting Facility
EDT Latitude Longitude Course Direction KTS MPH feet Rate Location/Type
Wed 08:04:06 PM 41.5049 -86.1099 126° Southeast 349 402 9,900  Level FlightAware ADS-B
Wed 08:04:29 PM 41.4826 -86.0697 126° Southeast 352 405 9,900 1,000 Level FlightAware ADS-B
Wed 08:05:12 PM 41.4486 -86.0114 126° Southeast 327 376 11,000 2,171 Climbing Indianapolis Center
Wed 08:06:14 PM 41.3872 -85.9044 127° Southeast 343 395 13,700 2,488 Climbing Indianapolis Center
Wed 08:07:15 PM 41.3231 -85.7886 126° Southeast 368 423 16,100 2,146 Climbing Indianapolis Center
Wed 08:08:17 PM 41.2572 -85.6706 127° Southeast 389 448 18,100 2,177 Climbing Indianapolis Center
Wed 08:09:19 PM 41.1733 -85.5272 128° Southeast 407 468 20,600 2,371 Climbing Indianapolis Center
Wed 08:10:21 PM 41.1036 -85.4053 127° Southeast 410 472 23,000 2,098 Climbing Indianapolis Center
Wed 08:11:22 PM 41.0283 -85.2858 130° Southeast 417 480 24,900 1,512 Climbing Indianapolis Center
Wed 08:12:24 PM 40.9331 -85.1903 143° Southeast 427 491 26,100 1,210 Climbing Indianapolis Center
Wed 08:13:26 PM 40.8175 -85.1242 157° South 448 516 27,400 1,210 Climbing Indianapolis Center
Wed 08:14:28 PM 40.6956 -85.0772 164° South 453 521 28,600 1,073 Climbing Indianapolis Center
Wed 08:15:29 PM 40.5700 -85.0294 164° South 464 534 29,600 927 Climbing Indianapolis Center
Wed 08:16:31 PM 40.4397 -84.9792 164° South 479 551 30,500 1,355 Climbing Indianapolis Center
Wed 08:17:33 PM 40.2814 -84.9183 164° South 488 562 32,400 1,403 Climbing Indianapolis Center
Wed 08:18:35 PM 40.1636 -84.8742 164° South 486 559 33,400 732 Climbing Indianapolis Center
Wed 08:23:50 PM 39.4695 -84.6122 164° South 484 557 37,000 471 Climbing FlightAware ADS-B
Wed 08:26:14 PM 39.1578 -84.4966 164° South 477 549 37,000  Level FlightAware ADS-B
Wed 08:26:51 PM 39.0813 -84.4684 164° South 478 550 37,000  Level FlightAware ADS-B
Wed 08:27:21 PM 39.0162 -84.4445 164° South 477 549 37,000  Level FlightAware ADS-B
Wed 08:28:04 PM 38.9255 -84.4111 164° South 477 549 37,000  Level FlightAware ADS-B
Wed 08:28:43 PM 38.8422 -84.3807 164° South 476 548 37,000 78 Level FlightAware ADS-B
Wed 08:29:21 PM 38.7625 -84.3516 164° South 472 543 37,100  Climbing FlightAware ADS-B
Wed 08:29:51 PM 38.6988 -84.3282 164° South 470 541 37,000 -158 Descending FlightAware ADS-B
Wed 08:29:59 PM 38.6853 -84.3234 164° South 469 540 37,000  Level FlightAware ADS-B (KCVG)
Wed 08:30:31 PM 38.6142 -84.3046 172° South 462 532 37,000  Level FlightAware ADS-B
Wed 08:30:35 PM 38.6052 -84.3030 172° South 462 532 37,000  Level FlightAware ADS-B (KCVG)
Wed 08:31:12 PM 38.5291 -84.2914 173° South 460 529 37,000  Level FlightAware ADS-B
Wed 08:32:12 PM 38.4049 -84.2720 173° South 463 533 37,000  Level FlightAware ADS-B
Wed 08:32:44 PM 38.3327 -84.2607 173° South 463 533 37,000  Level FlightAware ADS-B
Wed 08:33:25 PM 38.3002 -84.2556 173° South 461 531 37,000  Level FlightAware ADS-B
Wed 08:36:03 PM 37.9113 -84.1954 173° South 455 524 37,000  Level FlightAware ADS-B (KCVG)
Wed 08:37:09 PM 37.7733 -84.1741 173° South 455 524 37,000  Level FlightAware ADS-B
Wed 08:38:00 PM 37.6672 -84.1579 173° South 454 522 37,000  Level FlightAware ADS-B
Wed 08:38:41 PM 37.5815 -84.1446 173° South 453 521 37,000  Level FlightAware ADS-B (KCVG)
Wed 08:39:16 PM 37.5098 -84.1337 173° South 453 521 37,000 59 Level FlightAware ADS-B
Wed 08:40:23 PM 37.4187 -84.1200 173° South 448 516 37,100  Climbing FlightAware ADS-B
Wed 08:41:21 PM 37.2579 -84.0956 173° South 442 509 37,000 -52 Descending FlightAware ADS-B
Wed 08:42:18 PM 37.1741 -84.0827 173° South 443 510 37,000  Level FlightAware ADS-B
Wed 08:43:17 PM 37.0236 -84.0597 173° South 443 510 37,000  Level Indianapolis Center
Wed 08:44:19 PM 36.8992 -84.0419 173° South 445 512 37,000  Level Indianapolis Center
Wed 08:45:21 PM 36.7772 -84.0231 173° South 445 512 37,000  Level Indianapolis Center
Wed 08:46:22 PM 36.6539 -84.0042 173° South 445 512 37,000  Level Indianapolis Center
Wed 08:47:24 PM 36.5289 -83.9858 173° South 446 513 37,000  Level Indianapolis Center
Wed 08:48:25 PM 36.4069 -83.9675 173° South 446 513 37,000  Level Indianapolis Center
Wed 08:49:27 PM 36.2558 -83.9461 173° South 447 514 37,000  Level Indianapolis Center
Wed 08:50:28 PM 36.1300 -83.9269 173° South 449 517 37,000  Level Indianapolis Center
Wed 08:51:10 PM 36.0561 -83.9181 174° South 452 520 37,000  Level Atlanta Center
Wed 08:56:32 PM 35.3830 -84.0207 191° South 440 506 37,000  Level FlightAware ADS-B (KDZJ)
Wed 08:57:09 PM 35.3094 -84.0384 191° South 440 506 37,000  Level FlightAware ADS-B (KDZJ)
Wed 08:57:54 PM 35.2191 -84.0601 191° South 440 506 37,000  Level FlightAware ADS-B (KDZJ)
Wed 08:58:33 PM 35.1419 -84.0785 191° South 440 506 37,000  Level FlightAware ADS-B (KDZJ)
Wed 08:59:14 PM 35.0583 -84.0986 191° South 440 506 37,000  Level FlightAware ADS-B (KDZJ)
Wed 08:59:54 PM 34.9787 -84.1176 191° South 440 506 37,000  Level FlightAware ADS-B (KDZJ)
Wed 09:00:32 PM 34.9026 -84.1357 191° South 441 507 37,000  Level FlightAware ADS-B (KDZJ)
Wed 09:01:14 PM 34.8189 -84.1555 191° South 444 511 37,000  Level FlightAware ADS-B (KDZJ)
Wed 09:01:48 PM 34.7496 -84.1720 191° South 440 506 37,000  Level FlightAware ADS-B (KDZJ)
Wed 09:02:31 PM 34.6628 -84.1928 191° South 443 510 37,000  Level FlightAware ADS-B (KDZJ)
Wed 09:03:13 PM 34.5752 -84.2135 191° South 443 510 37,000  Level FlightAware ADS-B (KDZJ)
Wed 09:03:54 PM 34.4917 -84.2332 191° South 443 510 37,000  Level FlightAware ADS-B (KDZJ)
Wed 09:04:34 PM 34.4088 -84.2528 191° South 445 512 37,000  Level FlightAware ADS-B (KDZJ)
Wed 09:05:14 PM 34.3271 -84.2720 191° South 443 510 37,000  Level FlightAware ADS-B (KDZJ)
Wed 09:05:54 PM 34.2444 -84.2913 191° South 441 507 37,000  Level FlightAware ADS-B (KDZJ)
Wed 09:06:35 PM 34.1617 -84.3107 191° South 439 505 37,000  Level FlightAware ADS-B (KDZJ)
Wed 09:07:14 PM 34.0817 -84.3294 191° South 439 505 37,000  Level FlightAware ADS-B (KDZJ)
Wed 09:07:55 PM 33.9984 -84.3488 191° South 439 505 37,000  Level FlightAware ADS-B (KDZJ)
Wed 09:09:10 PM 33.8628 -84.3842 191° South 448 516 37,000  Level Atlanta Center
Wed 09:10:10 PM 33.7414 -84.4111 190° South 455 524 37,000  Level Atlanta Center
Wed 09:11:10 PM 33.6058 -84.4353 188° South 452 520 37,000  Level Atlanta Center
Wed 09:12:10 PM 33.4908 -84.4347 180° South 452 520 37,000  Level Atlanta Center
Wed 09:13:10 PM 33.3636 -84.4317 179° South 457 526 37,000  Level Atlanta Center
Wed 09:14:10 PM 33.2364 -84.4311 180° South 457 526 37,000  Level Atlanta Center
Wed 09:15:10 PM 33.1089 -84.4256 178° South 457 526 37,000  Level Atlanta Center
Wed 09:16:10 PM 32.9839 -84.4250 180° South 457 526 37,000  Level Atlanta Center
Wed 09:17:10 PM 32.8586 -84.4222 179° South 457 526 37,000  Level Atlanta Center
Wed 09:18:10 PM 32.7186 -84.4192 179° South 457 526 37,000  Level Atlanta Center
Wed 09:19:10 PM 32.5914 -84.4161 179° South 457 526 37,000  Level Atlanta Center
Wed 09:20:10 PM 32.4683 -84.4156 180° South 457 526 37,000  Level Atlanta Center
Wed 09:21:10 PM 32.3408 -84.4100 178° South 457 526 37,000  Level Atlanta Center
Wed 09:22:10 PM 32.2200 -84.4072 179° South 452 520 37,000  Level Atlanta Center
Wed 09:22:56 PM 32.1219 -84.4061 179° South 450 518 37,000  Level Jacksonville Center
Wed 09:23:57 PM 32.0008 -84.4042 179° South 439 505 37,000  Level Jacksonville Center
Wed 09:24:56 PM 31.8778 -84.4019 179° South 439 505 37,000  Level Jacksonville Center
Wed 09:25:56 PM 31.7525 -84.3975 178° South 439 505 37,000  Level Jacksonville Center
Wed 09:31:29 PM 31.0997 -84.2654 166° South 431 496 37,000 -53 Level FlightAware ADS-B (KONZ)
Wed 09:33:32 PM 30.8596 -84.1949 166° South 435 501 36,600 -407 Descending FlightAware ADS-B (KONZ)
Wed 09:34:11 PM 30.7812 -84.1721 166° South 441 507 35,900 -957 Descending FlightAware ADS-B (KONZ)
Wed 09:34:41 PM 30.7222 -84.1550 166° South 443 510 35,500 -900 Descending FlightAware ADS-B (KONZ)
Wed 09:35:11 PM 30.6582 -84.1361 165° South 446 513 35,000 -968 Descending FlightAware ADS-B (KONZ)
Wed 09:35:43 PM 30.5957 -84.1096 159° South 451 519 34,500 -968 Descending FlightAware ADS-B (KONZ)
Wed 09:36:13 PM 30.5380 -84.0839 159° South 452 520 34,000 -987 Descending FlightAware ADS-B (KONZ)
Wed 09:37:02 PM 30.4417 -84.0413 159° South 458 527 33,200 -1,011 Descending FlightAware ADS-B (KONZ)
Wed 09:37:42 PM 30.3606 -84.0055 159° South 464 534 32,500 -857 Descending FlightAware ADS-B (KONZ)
Wed 09:38:12 PM 30.3005 -83.9789 159° South 467 537 32,200 -600 Descending FlightAware ADS-B (KONZ)
Wed 09:38:52 PM 30.2188 -83.9429 159° South 468 539 31,800 -519 Descending FlightAware ADS-B (KONZ)
Wed 09:39:56 PM 30.0914 -83.8914 159° South 474 545 31,300 -484 Descending Jacksonville Center
Wed 09:40:56 PM 29.9686 -83.8347 158° South 474 545 30,800 -500 Descending Jacksonville Center
Wed 09:41:56 PM 29.8481 -83.7833 160° South 474 545 30,300 -600 Descending Jacksonville Center
Wed 09:42:56 PM 29.7208 -83.7439 165° South 474 545 29,600 -700 Descending Jacksonville Center
Wed 09:43:56 PM 29.5894 -83.7094 167° South 474 545 28,900 -750 Descending Jacksonville Center
Wed 09:44:56 PM 29.4603 -83.6750 167° South 474 545 28,100 -750 Descending Jacksonville Center
Wed 09:45:56 PM 29.3269 -83.6428 168° South 480 552 27,400 -750 Descending Jacksonville Center
Wed 09:46:56 PM 29.1997 -83.5992 163° South 480 552 26,600 -800 Descending Jacksonville Center
Wed 09:47:56 PM 29.0769 -83.5531 162° South 475 547 25,800 -1,150 Descending Jacksonville Center
Wed 09:48:56 PM 28.9689 -83.4692 146° Southeast 461 531 24,300 -1,600 Descending Jacksonville Center
Wed 09:49:56 PM 28.8647 -83.3786 143° Southeast 461 531 22,600 -2,800 Descending Jacksonville Center
Wed 09:50:56 PM 28.7628 -83.2928 144° Southeast 466 536 18,700 -3,350 Descending Jacksonville Center
Wed 09:51:56 PM 28.6650 -83.2097 143° Southeast 459 528 15,900 -2,100 Descending Jacksonville Center
Wed 09:52:56 PM 28.5711 -83.1289 143° Southeast 444 511 14,500 -1,143 Descending Jacksonville Center
Wed 09:53:41 PM 28.5000 -83.0667 142° Southeast 382 440 13,900 -857 Descending Tampa TRACON
Wed 09:54:41 PM 28.4333 -82.9833 132° Southeast 355 409 13,000 -800 Descending Tampa TRACON
Wed 09:55:41 PM 28.3833 -82.9000 124° Southeast 317 365 12,300 -1,200 Descending Tampa TRACON
Wed 09:56:41 PM 28.3167 -82.8333 139° Southeast 324 373 10,600 -2,150 Descending Tampa TRACON
Wed 09:57:41 PM 28.2667 -82.7500 124° Southeast 315 362 8,000 -2,524 Descending Tampa TRACON
Wed 09:58:47 PM 28.2000 -82.6833 139° Southeast 305 351 5,300 -2,190 Descending Tampa TRACON
Wed 09:59:47 PM 28.1167 -82.7000 190° South 260 299 3,400 -1,526 Descending Tampa TRACON
Wed 10:00:41 PM 28.0667 -82.7167 196° South 218 251 2,400 -881 Descending Tampa TRACON
Wed 10:01:36 PM 28.0167 -82.7000 164° South 177 204 1,800 -800 Descending Tampa TRACON
Wed 10:02:41 PM 27.9667 -82.7000 180° South 136 157 800 -768 Descending Tampa TRACON
Wed 10:03:41 PM 27.9333 -82.7000 180° South 128 147 200 -600 Descending Tampa TRACON

Login

Don't have an account? Register now (free) for customized features, flight alerts, and more!